Cartersville, South Carolina
Current Conditions -  °F | °C
As of 10:53 PM on Sunday 23 Nov 2014 (Local Time) from KFLO Reporting Station
Light Rain Light Rain  
Wind Chill: 67°   Ceiling: 11000
Heat Index: 67°   Visibility: 10mi
Dew Point: 63°   Wind: 8mph
Humidity: 87%   Direction: 230°SW
Pressure: 29.8"   Gusts: NA
Location:  34.07°N, 79.933°W
Report Text: KFLO 240353Z AUTO 23007KT 10SM -RA FEW024 BKN110 19/17 A2980 RMK AO2 TSE0254 SLP087 P0009 T01940172
Loading
Personal Weather Stations






























Interactive Weather Map New forecast layout! Learn more

10-Day Weather Forecast

Advertisements
Track Severe Weather on mobile